sensor_id;sensor_type;location;lat;lon;timestamp;pressure;altitude;pressure_sealevel;temperature;humidity
64967;BME280;51710;38.732;-121.358;2023-03-20T00:00:55;100464.34;;;13.73;95.13
64967;BME280;51710;38.732;-121.358;2023-03-20T00:03:22;100469.03;;;13.71;95.14
64967;BME280;51710;38.732;-121.358;2023-03-20T00:05:48;100468.56;;;13.67;95.63
64967;BME280;51710;38.732;-121.358;2023-03-20T00:08:16;100473.13;;;13.67;95.33
64967;BME280;51710;38.732;-121.358;2023-03-20T00:10:44;100464.06;;;13.68;95.80
64967;BME280;51710;38.732;-121.358;2023-03-20T00:13:23;100460.72;;;13.66;95.66
64967;BME280;51710;38.732;-121.358;2023-03-20T00:15:51;100456.88;;;13.68;95.85
64967;BME280;51710;38.732;-121.358;2023-03-20T00:18:20;100468.56;;;13.67;95.71
64967;BME280;51710;38.732;-121.358;2023-03-20T00:20:49;100473.13;;;13.67;95.76
64967;BME280;51710;38.732;-121.358;2023-03-20T00:23:16;100461.56;;;13.66;95.64
64967;BME280;51710;38.732;-121.358;2023-03-20T00:25:43;100460.06;;;13.64;95.96
64967;BME280;51710;38.732;-121.358;2023-03-20T00:28:36;100467.75;;;13.67;96.02
64967;BME280;51710;38.732;-121.358;2023-03-20T00:31:33;100461.38;;;13.68;96.00
64967;BME280;51710;38.732;-121.358;2023-03-20T00:34:03;100469.78;;;13.65;95.89
64967;BME280;51710;38.732;-121.358;2023-03-20T00:36:30;100471.63;;;13.64;96.02
64967;BME280;51710;38.732;-121.358;2023-03-20T00:38:56;100463.78;;;13.63;96.05
64967;BME280;51710;38.732;-121.358;2023-03-20T00:44:22;100462.66;;;13.57;96.42
64967;BME280;51710;38.732;-121.358;2023-03-20T00:46:55;100459.78;;;13.58;96.53
64967;BME280;51710;38.732;-121.358;2023-03-20T00:49:26;100457.13;;;13.58;96.73
64967;BME280;51710;38.732;-121.358;2023-03-20T00:51:53;100461.66;;;13.58;96.90
64967;BME280;51710;38.732;-121.358;2023-03-20T00:54:19;100463.31;;;13.59;96.68
64967;BME280;51710;38.732;-121.358;2023-03-20T00:57:06;100461.81;;;13.56;96.96
64967;BME280;51710;38.732;-121.358;2023-03-20T00:59:36;100462.66;;;13.57;97.05
64967;BME280;51710;38.732;-121.358;2023-03-20T01:02:04;100453.44;;;13.60;97.03
64967;BME280;51710;38.732;-121.358;2023-03-20T01:04:35;100455.28;;;13.59;97.00
64967;BME280;51710;38.732;-121.358;2023-03-20T01:07:03;100457.31;;;13.57;97.42
64967;BME280;51710;38.732;-121.358;2023-03-20T01:09:30;100453.78;;;13.56;97.23
64967;BME280;51710;38.732;-121.358;2023-03-20T01:11:58;100457.13;;;13.58;97.27
64967;BME280;51710;38.732;-121.358;2023-03-20T01:14:25;100459.78;;;13.58;97.21
64967;BME280;51710;38.732;-121.358;2023-03-20T01:16:51;100453.16;;;13.54;96.88
64967;BME280;51710;38.732;-121.358;2023-03-20T01:19:18;100452.53;;;13.52;97.04
64967;BME280;51710;38.732;-121.358;2023-03-20T01:21:44;100460.06;;;13.49;97.02
64967;BME280;51710;38.732;-121.358;2023-03-20T01:24:10;100460.41;;;13.46;97.33
64967;BME280;51710;38.732;-121.358;2023-03-20T01:26:39;100444.56;;;13.44;97.38
64967;BME280;51710;38.732;-121.358;2023-03-20T01:29:19;100449.91;;;13.44;97.48
64967;BME280;51710;38.732;-121.358;2023-03-20T01:31:45;100457.94;;;13.44;97.86
64967;BME280;51710;38.732;-121.358;2023-03-20T01:34:12;100461.06;;;13.48;97.96
64967;BME280;51710;38.732;-121.358;2023-03-20T01:36:39;100464.22;;;13.51;97.93
64967;BME280;51710;38.732;-121.358;2023-03-20T01:39:06;100478.25;;;13.53;97.65
64967;BME280;51710;38.732;-121.358;2023-03-20T01:41:32;100482.41;;;13.56;97.91
64967;BME280;51710;38.732;-121.358;2023-03-20T01:44:00;100487.41;;;13.59;97.79
64967;BME280;51710;38.732;-121.358;2023-03-20T01:46:32;100489.22;;;13.58;97.82
64967;BME280;51710;38.732;-121.358;2023-03-20T01:49:08;100486.38;;;13.60;97.79
64967;BME280;51710;38.732;-121.358;2023-03-20T01:51:54;100486.84;;;13.64;97.66
64967;BME280;51710;38.732;-121.358;2023-03-20T01:56:57;100487.84;;;13.63;97.63
64967;BME280;51710;38.732;-121.358;2023-03-20T01:59:37;100494.84;;;13.64;97.95
64967;BME280;51710;38.732;-121.358;2023-03-20T02:02:07;100496.72;;;13.63;97.62
64967;BME280;51710;38.732;-121.358;2023-03-20T02:04:41;100492.56;;;13.61;97.55
64967;BME280;51710;38.732;-121.358;2023-03-20T02:07:10;100489.88;;;13.61;97.63
64967;BME280;51710;38.732;-121.358;2023-03-20T02:09:38;100498.75;;;13.61;97.74
64967;BME280;51710;38.732;-121.358;2023-03-20T02:12:05;100489.88;;;13.61;97.84
64967;BME280;51710;38.732;-121.358;2023-03-20T02:14:31;100496.88;;;13.62;97.71
64967;BME280;51710;38.732;-121.358;2023-03-20T02:16:58;100491.91;;;13.58;97.89
64967;BME280;51710;38.732;-121.358;2023-03-20T02:28:14;100476.78;;;13.66;98.47
64967;BME280;51710;38.732;-121.358;2023-03-20T02:30:58;100469.41;;;13.68;98.03
64967;BME280;51710;38.732;-121.358;2023-03-20T02:33:48;100476.41;;;13.69;98.08
64967;BME280;51710;38.732;-121.358;2023-03-20T02:36:47;100471.06;;;13.69;97.84
64967;BME280;51710;38.732;-121.358;2023-03-20T02:42:14;100475.94;;;13.65;97.98
64967;BME280;51710;38.732;-121.358;2023-03-20T02:47:48;100483.50;;;13.62;98.11
64967;BME280;51710;38.732;-121.358;2023-03-20T02:50:33;100485.38;;;13.61;98.24
64967;BME280;51710;38.732;-121.358;2023-03-20T02:53:11;100484.53;;;13.61;98.21
64967;BME280;51710;38.732;-121.358;2023-03-20T02:55:52;100478.34;;;13.60;98.47
64967;BME280;51710;38.732;-121.358;2023-03-20T02:58:27;100472.19;;;13.60;98.38
64967;BME280;51710;38.732;-121.358;2023-03-20T03:03:47;100482.41;;;13.56;98.39
64967;BME280;51710;38.732;-121.358;2023-03-20T03:06:31;100477.06;;;13.56;98.73
64967;BME280;51710;38.732;-121.358;2023-03-20T03:09:09;100483.22;;;13.56;98.59
64967;BME280;51710;38.732;-121.358;2023-03-20T03:11:40;100494.94;;;13.55;98.65
64967;BME280;51710;38.732;-121.358;2023-03-20T03:14:18;100502.50;;;13.52;98.64
64967;BME280;51710;38.732;-121.358;2023-03-20T03:16:47;100490.63;;;13.54;98.66
64967;BME280;51710;38.732;-121.358;2023-03-20T03:19:18;100499.28;;;13.56;99.10
64967;BME280;51710;38.732;-121.358;2023-03-20T03:21:48;100499.28;;;13.56;99.05
64967;BME280;51710;38.732;-121.358;2023-03-20T03:24:31;100504.47;;;13.58;99.21
64967;BME280;51710;38.732;-121.358;2023-03-20T03:27:01;100505.94;;;13.61;98.93
64967;BME280;51710;38.732;-121.358;2023-03-20T03:29:32;100509.28;;;13.63;99.04
64967;BME280;51710;38.732;-121.358;2023-03-20T03:32:02;100518.28;;;13.62;98.97
64967;BME280;51710;38.732;-121.358;2023-03-20T03:34:31;100522.47;;;13.64;99.27
64967;BME280;51710;38.732;-121.358;2023-03-20T03:37:03;100530.97;;;13.68;99.25
64967;BME280;51710;38.732;-121.358;2023-03-20T03:39:45;100534.09;;;13.71;99.03
64967;BME280;51710;38.732;-121.358;2023-03-20T03:42:30;100526.53;;;13.75;98.74
64967;BME280;51710;38.732;-121.358;2023-03-20T03:45:18;100527.56;;;13.74;98.72
64967;BME280;51710;38.732;-121.358;2023-03-20T03:48:25;100521.38;;;13.73;98.66
64967;BME280;51710;38.732;-121.358;2023-03-20T03:50:56;100523.41;;;13.71;98.63
64967;BME280;51710;38.732;-121.358;2023-03-20T03:53:33;100522.94;;;13.68;98.60
64967;BME280;51710;38.732;-121.358;2023-03-20T03:56:04;100522.28;;;13.66;98.76
64967;BME280;51710;38.732;-121.358;2023-03-20T03:58:44;100519.59;;;13.66;98.90
64967;BME280;51710;38.732;-121.358;2023-03-20T04:01:13;100514.25;;;13.66;99.08
64967;BME280;51710;38.732;-121.358;2023-03-20T04:03:45;100513.88;;;13.69;99.04
64967;BME280;51710;38.732;-121.358;2023-03-20T04:06:14;100510.19;;;13.70;99.05
64967;BME280;51710;38.732;-121.358;2023-03-20T04:08:42;100511.84;;;13.71;99.07
64967;BME280;51710;38.732;-121.358;2023-03-20T04:11:15;100504.84;;;13.70;99.07
64967;BME280;51710;38.732;-121.358;2023-03-20T04:13:41;100503.16;;;13.69;98.91
64967;BME280;51710;38.732;-121.358;2023-03-20T04:16:11;100501.53;;;13.68;99.30
64967;BME280;51710;38.732;-121.358;2023-03-20T04:18:42;100497.00;;;13.68;99.15
64967;BME280;51710;38.732;-121.358;2023-03-20T04:21:08;100492.47;;;13.69;99.27
64967;BME280;51710;38.732;-121.358;2023-03-20T04:23:35;100496.81;;;13.70;98.91
64967;BME280;51710;38.732;-121.358;2023-03-20T04:26:02;100508.19;;;13.72;99.15
64967;BME280;51710;38.732;-121.358;2023-03-20T04:28:28;100513.53;;;13.72;99.17
64967;BME280;51710;38.732;-121.358;2023-03-20T04:30:56;100508.38;;;13.70;99.23
64967;BME280;51710;38.732;-121.358;2023-03-20T04:33:24;100515.56;;;13.70;99.14
64967;BME280;51710;38.732;-121.358;2023-03-20T04:35:51;100516.56;;;13.69;99.05
64967;BME280;51710;38.732;-121.358;2023-03-20T04:38:18;100522.28;;;13.66;98.88
64967;BME280;51710;38.732;-121.358;2023-03-20T04:40:46;100518.75;;;13.65;98.75
64967;BME280;51710;38.732;-121.358;2023-03-20T04:43:13;100526.50;;;13.60;98.74
64967;BME280;51710;38.732;-121.358;2023-03-20T04:45:40;100540.06;;;13.58;98.54
64967;BME280;51710;38.732;-121.358;2023-03-20T04:48:07;100545.78;;;13.55;98.57
64967;BME280;51710;38.732;-121.358;2023-03-20T04:50:33;100548.66;;;13.54;98.24
64967;BME280;51710;38.732;-121.358;2023-03-20T04:53:00;100540.69;;;13.46;98.14
64967;BME280;51710;38.732;-121.358;2023-03-20T04:55:26;100549.91;;;13.43;98.30
64967;BME280;51710;38.732;-121.358;2023-03-20T04:57:52;100543.44;;;13.38;97.99
64967;BME280;51710;38.732;-121.358;2023-03-20T05:00:18;100545.34;;;13.29;97.03
64967;BME280;51710;38.732;-121.358;2023-03-20T05:02:45;100553.78;;;13.18;97.35
64967;BME280;51710;38.732;-121.358;2023-03-20T05:05:11;100559.00;;;13.12;97.21
64967;BME280;51710;38.732;-121.358;2023-03-20T05:07:37;100556.88;;;13.07;97.31
64967;BME280;51710;38.732;-121.358;2023-03-20T05:10:04;100569.09;;;13.02;96.74
64967;BME280;51710;38.732;-121.358;2023-03-20T05:12:31;100571.63;;;12.95;96.51
64967;BME280;51710;38.732;-121.358;2023-03-20T05:14:57;100575.66;;;12.91;96.50
64967;BME280;51710;38.732;-121.358;2023-03-20T05:17:24;100577.00;;;12.87;96.26
64967;BME280;51710;38.732;-121.358;2023-03-20T05:19:50;100577.72;;;12.81;95.92
64967;BME280;51710;38.732;-121.358;2023-03-20T05:22:17;100575.72;;;12.75;96.42
64967;BME280;51710;38.732;-121.358;2023-03-20T05:24:43;100580.41;;;12.73;96.61
64967;BME280;51710;38.732;-121.358;2023-03-20T05:27:10;100585.63;;;12.67;96.45
64967;BME280;51710;38.732;-121.358;2023-03-20T05:29:36;100585.50;;;12.60;96.29
64967;BME280;51710;38.732;-121.358;2023-03-20T05:32:03;100578.16;;;12.54;96.34
64967;BME280;51710;38.732;-121.358;2023-03-20T05:34:29;100591.88;;;12.51;95.47
64967;BME280;51710;38.732;-121.358;2023-03-20T05:36:55;100608.56;;;12.45;95.03
64967;BME280;51710;38.732;-121.358;2023-03-20T05:39:21;100616.44;;;12.38;94.96
64967;BME280;51710;38.732;-121.358;2023-03-20T05:41:48;100622.63;;;12.31;94.49
64967;BME280;51710;38.732;-121.358;2023-03-20T05:44:14;100624.97;;;12.26;94.37
64967;BME280;51710;38.732;-121.358;2023-03-20T05:46:41;100629.16;;;12.20;94.39
64967;BME280;51710;38.732;-121.358;2023-03-20T05:49:07;100617.34;;;12.15;94.52
64967;BME280;51710;38.732;-121.358;2023-03-20T05:51:34;100634.88;;;12.09;94.59
64967;BME280;51710;38.732;-121.358;2023-03-20T05:54:00;100618.19;;;12.07;94.64
64967;BME280;51710;38.732;-121.358;2023-03-20T05:56:26;100622.00;;;12.05;95.00
64967;BME280;51710;38.732;-121.358;2023-03-20T05:58:52;100611.69;;;12.02;94.56
64967;BME280;51710;38.732;-121.358;2023-03-20T06:01:19;100617.72;;;11.96;94.52
64967;BME280;51710;38.732;-121.358;2023-03-20T06:03:48;100614.69;;;11.91;94.35
64967;BME280;51710;38.732;-121.358;2023-03-20T06:06:15;100609.69;;;11.88;94.62
64967;BME280;51710;38.732;-121.358;2023-03-20T06:08:42;100610.03;;;11.85;94.57
64967;BME280;51710;38.732;-121.358;2023-03-20T06:11:09;100624.72;;;11.81;94.78
64967;BME280;51710;38.732;-121.358;2023-03-20T06:13:36;100634.72;;;11.79;93.99
64967;BME280;51710;38.732;-121.358;2023-03-20T06:16:02;100624.22;;;11.77;94.17
64967;BME280;51710;38.732;-121.358;2023-03-20T06:18:29;100634.38;;;11.74;94.23
64967;BME280;51710;38.732;-121.358;2023-03-20T06:20:56;100629.88;;;11.74;94.52
64967;BME280;51710;38.732;-121.358;2023-03-20T06:23:23;100633.72;;;11.72;94.57
64967;BME280;51710;38.732;-121.358;2023-03-20T06:25:49;100647.03;;;11.72;94.82
64967;BME280;51710;38.732;-121.358;2023-03-20T06:28:16;100647.22;;;11.70;94.73
64967;BME280;51710;38.732;-121.358;2023-03-20T06:30:43;100654.53;;;11.68;94.40
64967;BME280;51710;38.732;-121.358;2023-03-20T06:33:09;100652.06;;;11.67;94.45
64967;BME280;51710;38.732;-121.358;2023-03-20T06:35:35;100648.84;;;11.63;94.49
64967;BME280;51710;38.732;-121.358;2023-03-20T06:38:02;100640.03;;;11.63;94.02
64967;BME280;51710;38.732;-121.358;2023-03-20T06:40:28;100644.03;;;11.59;94.11
64967;BME280;51710;38.732;-121.358;2023-03-20T06:42:54;100641.53;;;11.57;94.53
64967;BME280;51710;38.732;-121.358;2023-03-20T06:45:21;100636.03;;;11.59;94.39
64967;BME280;51710;38.732;-121.358;2023-03-20T06:47:47;100645.84;;;11.58;94.18
64967;BME280;51710;38.732;-121.358;2023-03-20T06:50:14;100652.03;;;11.59;94.22
64967;BME280;51710;38.732;-121.358;2023-03-20T06:52:40;100653.00;;;11.58;94.63
64967;BME280;51710;38.732;-121.358;2023-03-20T06:55:08;100652.38;;;11.56;93.93
64967;BME280;51710;38.732;-121.358;2023-03-20T06:57:34;100646.53;;;11.52;94.19
64967;BME280;51710;38.732;-121.358;2023-03-20T07:00:00;100647.34;;;11.53;94.21
64967;BME280;51710;38.732;-121.358;2023-03-20T07:02:26;100637.84;;;11.50;93.83
64967;BME280;51710;38.732;-121.358;2023-03-20T07:04:53;100643.34;;;11.49;93.92
64967;BME280;51710;38.732;-121.358;2023-03-20T07:07:19;100650.50;;;11.48;93.81
64967;BME280;51710;38.732;-121.358;2023-03-20T07:09:45;100663.00;;;11.48;93.62
64967;BME280;51710;38.732;-121.358;2023-03-20T07:12:13;100661.34;;;11.47;93.61
64967;BME280;51710;38.732;-121.358;2023-03-20T07:14:41;100670.19;;;11.47;93.21
64967;BME280;51710;38.732;-121.358;2023-03-20T07:17:08;100676.34;;;11.48;93.13
64967;BME280;51710;38.732;-121.358;2023-03-20T07:19:35;100671.84;;;11.48;92.50
64967;BME280;51710;38.732;-121.358;2023-03-20T07:22:04;100681.34;;;11.51;92.94
64967;BME280;51710;38.732;-121.358;2023-03-20T07:24:31;100673.31;;;11.51;93.29
64967;BME280;51710;38.732;-121.358;2023-03-20T07:26:57;100681.50;;;11.49;93.02
64967;BME280;51710;38.732;-121.358;2023-03-20T07:29:23;100680.53;;;11.50;93.05
64967;BME280;51710;38.732;-121.358;2023-03-20T07:31:49;100665.03;;;11.54;93.30
64967;BME280;51710;38.732;-121.358;2023-03-20T07:34:16;100675.69;;;11.54;92.73
64967;BME280;51710;38.732;-121.358;2023-03-20T07:36:43;100679.34;;;11.53;92.47
64967;BME280;51710;38.732;-121.358;2023-03-20T07:39:09;100681.34;;;11.51;92.74
64967;BME280;51710;38.732;-121.358;2023-03-20T07:41:36;100695.00;;;11.48;92.77
64967;BME280;51710;38.732;-121.358;2023-03-20T07:44:02;100684.50;;;11.46;93.21
64967;BME280;51710;38.732;-121.358;2023-03-20T07:46:29;100695.16;;;11.46;92.94
64967;BME280;51710;38.732;-121.358;2023-03-20T07:48:55;100695.00;;;11.48;93.23
64967;BME280;51710;38.732;-121.358;2023-03-20T07:51:23;100707.19;;;11.50;92.91
64967;BME280;51710;38.732;-121.358;2023-03-20T07:53:49;100702.66;;;11.51;93.27
64967;BME280;51710;38.732;-121.358;2023-03-20T07:56:16;100709.69;;;11.52;92.82
64967;BME280;51710;38.732;-121.358;2023-03-20T07:58:42;100710.66;;;11.51;93.00
64967;BME280;51710;38.732;-121.358;2023-03-20T08:01:08;100710.66;;;11.51;93.12
64967;BME280;51710;38.732;-121.358;2023-03-20T08:03:34;100713.03;;;11.54;93.28
64967;BME280;51710;38.732;-121.358;2023-03-20T08:06:01;100719.16;;;11.54;93.00
64967;BME280;51710;38.732;-121.358;2023-03-20T08:08:28;100714.00;;;11.53;93.15
64967;BME280;51710;38.732;-121.358;2023-03-20T08:10:55;100713.19;;;11.52;92.41
64967;BME280;51710;38.732;-121.358;2023-03-20T08:13:21;100709.69;;;11.52;92.58
64967;BME280;51710;38.732;-121.358;2023-03-20T08:15:47;100716.84;;;11.51;92.99
64967;BME280;51710;38.732;-121.358;2023-03-20T08:18:13;100700.00;;;11.51;93.10
64967;BME280;51710;38.732;-121.358;2023-03-20T08:20:40;100695.50;;;11.51;92.62
64967;BME280;51710;38.732;-121.358;2023-03-20T08:23:06;100698.00;;;11.53;92.77
64967;BME280;51710;38.732;-121.358;2023-03-20T08:25:32;100706.00;;;11.53;92.59
64967;BME280;51710;38.732;-121.358;2023-03-20T08:28:02;100705.31;;;11.51;92.74
64967;BME280;51710;38.732;-121.358;2023-03-20T08:30:29;100705.19;;;11.52;92.46
64967;BME280;51710;38.732;-121.358;2023-03-20T08:32:55;100717.69;;;11.52;92.64
64967;BME280;51710;38.732;-121.358;2023-03-20T08:35:24;100718.66;;;11.51;92.84
64967;BME280;51710;38.732;-121.358;2023-03-20T08:37:50;100721.34;;;11.51;92.63
64967;BME280;51710;38.732;-121.358;2023-03-20T08:40:16;100729.31;;;11.51;92.48
64967;BME280;51710;38.732;-121.358;2023-03-20T08:42:42;100724.00;;;11.51;92.63
64967;BME280;51710;38.732;-121.358;2023-03-20T08:45:09;100724.00;;;11.51;92.64
64967;BME280;51710;38.732;-121.358;2023-03-20T08:47:36;100725.00;;;11.50;92.12
64967;BME280;51710;38.732;-121.358;2023-03-20T08:50:02;100723.34;;;11.49;92.58
64967;BME280;51710;38.732;-121.358;2023-03-20T08:52:29;100712.84;;;11.47;92.13
64967;BME280;51710;38.732;-121.358;2023-03-20T08:54:55;100723.66;;;11.46;92.23
64967;BME280;51710;38.732;-121.358;2023-03-20T08:57:21;100721.84;;;11.46;92.09
64967;BME280;51710;38.732;-121.358;2023-03-20T08:59:48;100721.00;;;11.46;92.04
64967;BME280;51710;38.732;-121.358;2023-03-20T09:02:14;100726.19;;;11.47;92.39
64967;BME280;51710;38.732;-121.358;2023-03-20T09:04:40;100736.00;;;11.47;92.40
64967;BME280;51710;38.732;-121.358;2023-03-20T09:07:07;100729.66;;;11.48;92.33
64967;BME280;51710;38.732;-121.358;2023-03-20T09:09:33;100740.16;;;11.49;92.37
64967;BME280;51710;38.732;-121.358;2023-03-20T09:11:59;100746.34;;;11.50;92.28
64967;BME280;51710;38.732;-121.358;2023-03-20T09:14:27;100749.84;;;11.50;92.49
64967;BME280;51710;38.732;-121.358;2023-03-20T09:16:53;100748.84;;;11.51;92.64
64967;BME280;51710;38.732;-121.358;2023-03-20T09:19:19;100738.34;;;11.50;92.61
64967;BME280;51710;38.732;-121.358;2023-03-20T09:21:46;100741.69;;;11.52;92.30
64967;BME280;51710;38.732;-121.358;2023-03-20T09:24:12;100750.66;;;11.51;92.31
64967;BME280;51710;38.732;-121.358;2023-03-20T09:26:38;100756.00;;;11.51;92.45
64967;BME280;51710;38.732;-121.358;2023-03-20T09:29:05;100766.66;;;11.51;92.19
64967;BME280;51710;38.732;-121.358;2023-03-20T09:31:32;100753.50;;;11.49;92.11
64967;BME280;51710;38.732;-121.358;2023-03-20T09:33:58;100754.34;;;11.50;92.01
64967;BME280;51710;38.732;-121.358;2023-03-20T09:36:25;100753.66;;;11.48;92.14
64967;BME280;51710;38.732;-121.358;2023-03-20T09:38:54;100746.00;;;11.45;92.23
64967;BME280;51710;38.732;-121.358;2023-03-20T09:41:22;100735.50;;;11.43;92.86
64967;BME280;51710;38.732;-121.358;2023-03-20T09:46:45;100758.66;;;11.43;92.20
64967;BME280;51710;38.732;-121.358;2023-03-20T09:52:03;100763.81;;;11.44;92.33
64967;BME280;51710;38.732;-121.358;2023-03-20T09:54:47;100760.34;;;11.44;92.51
64967;BME280;51710;38.732;-121.358;2023-03-20T09:57:36;100764.66;;;11.45;92.77
64967;BME280;51710;38.732;-121.358;2023-03-20T10:00:13;100760.34;;;11.44;92.54
64967;BME280;51710;38.732;-121.358;2023-03-20T10:06:03;100757.50;;;11.45;92.73
64967;BME280;51710;38.732;-121.358;2023-03-20T10:08:36;100768.16;;;11.45;92.81
64967;BME280;51710;38.732;-121.358;2023-03-20T10:11:05;100777.66;;;11.48;92.98
64967;BME280;51710;38.732;-121.358;2023-03-20T10:19:01;100781.19;;;11.56;92.84
64967;BME280;51710;38.732;-121.358;2023-03-20T10:21:48;100788.03;;;11.59;92.71
64967;BME280;51710;38.732;-121.358;2023-03-20T10:24:25;100787.03;;;11.60;92.46
64967;BME280;51710;38.732;-121.358;2023-03-20T10:26:54;100786.44;;;11.66;92.44
64967;BME280;51710;38.732;-121.358;2023-03-20T10:32:26;100780.09;;;11.67;92.67
64967;BME280;51710;38.732;-121.358;2023-03-20T10:37:54;100776.94;;;11.71;92.07
64967;BME280;51710;38.732;-121.358;2023-03-20T10:40:33;100786.44;;;11.74;92.46
64967;BME280;51710;38.732;-121.358;2023-03-20T10:43:07;100780.81;;;11.77;92.19
64967;BME280;51710;38.732;-121.358;2023-03-20T10:46:13;100773.94;;;11.74;91.80
64967;BME280;51710;38.732;-121.358;2023-03-20T10:48:48;100771.63;;;11.71;91.94
64967;BME280;51710;38.732;-121.358;2023-03-20T10:51:21;100763.91;;;11.68;91.94
64967;BME280;51710;38.732;-121.358;2023-03-20T10:54:03;100770.72;;;11.63;91.99
64967;BME280;51710;38.732;-121.358;2023-03-20T10:56:35;100764.03;;;11.59;92.00
64967;BME280;51710;38.732;-121.358;2023-03-20T11:01:47;100766.38;;;11.54;92.51
64967;BME280;51710;38.732;-121.358;2023-03-20T11:04:14;100765.00;;;11.50;92.33
64967;BME280;51710;38.732;-121.358;2023-03-20T11:09:20;100769.00;;;11.46;92.68
64967;BME280;51710;38.732;-121.358;2023-03-20T11:11:49;100766.66;;;11.43;92.19
64967;BME280;51710;38.732;-121.358;2023-03-20T11:14:19;100759.66;;;11.42;91.99
64967;BME280;51710;38.732;-121.358;2023-03-20T11:16:51;100767.97;;;11.38;92.77
64967;BME280;51710;38.732;-121.358;2023-03-20T11:19:19;100767.97;;;11.38;92.55
64967;BME280;51710;38.732;-121.358;2023-03-20T11:21:51;100768.81;;;11.39;92.45
64967;BME280;51710;38.732;-121.358;2023-03-20T11:24:50;100769.66;;;11.40;93.17
64967;BME280;51710;38.732;-121.358;2023-03-20T11:27:23;100776.63;;;11.41;92.79
64967;BME280;51710;38.732;-121.358;2023-03-20T11:29:50;100771.31;;;11.41;92.47
64967;BME280;51710;38.732;-121.358;2023-03-20T11:34:56;100765.97;;;11.41;92.25
64967;BME280;51710;38.732;-121.358;2023-03-20T11:37:34;100780.47;;;11.38;92.12
64967;BME280;51710;38.732;-121.358;2023-03-20T11:40:30;100769.13;;;11.36;93.18
64967;BME280;51710;38.732;-121.358;2023-03-20T11:45:33;100764.66;;;11.37;93.17
64967;BME280;51710;38.732;-121.358;2023-03-20T11:48:00;100770.28;;;11.33;92.23
64967;BME280;51710;38.732;-121.358;2023-03-20T11:50:41;100763.47;;;11.31;92.61
64967;BME280;51710;38.732;-121.358;2023-03-20T11:53:40;100769.25;;;11.26;92.97
64967;BME280;51710;38.732;-121.358;2023-03-20T11:56:24;100769.09;;;11.28;92.99
64967;BME280;51710;38.732;-121.358;2023-03-20T11:59:12;100774.28;;;11.29;92.85
64967;BME280;51710;38.732;-121.358;2023-03-20T12:01:43;100781.28;;;11.30;93.04
64967;BME280;51710;38.732;-121.358;2023-03-20T12:04:17;100772.59;;;11.28;93.10
64967;BME280;51710;38.732;-121.358;2023-03-20T12:07:24;100771.63;;;11.29;93.17
64967;BME280;51710;38.732;-121.358;2023-03-20T12:15:03;100765.25;;;11.22;92.80
64967;BME280;51710;38.732;-121.358;2023-03-20T12:17:50;100771.91;;;11.18;92.53
64967;BME280;51710;38.732;-121.358;2023-03-20T12:28:17;100781.63;;;11.02;93.42
64967;BME280;51710;38.732;-121.358;2023-03-20T12:34:02;100809.44;;;10.99;92.86
64967;BME280;51710;38.732;-121.358;2023-03-20T12:36:46;100798.25;;;10.96;93.43
64967;BME280;51710;38.732;-121.358;2023-03-20T12:39:19;100807.91;;;10.97;93.46
64967;BME280;51710;38.732;-121.358;2023-03-20T12:42:16;100802.75;;;10.95;93.52
64967;BME280;51710;38.732;-121.358;2023-03-20T12:53:35;100811.84;;;10.85;93.29
64967;BME280;51710;38.732;-121.358;2023-03-20T13:01:52;100829.91;;;10.73;93.26
64967;BME280;51710;38.732;-121.358;2023-03-20T13:07:18;100826.34;;;10.65;94.08
64967;BME280;51710;38.732;-121.358;2023-03-20T13:15:30;100834.41;;;10.55;93.22
64967;BME280;51710;38.732;-121.358;2023-03-20T13:18:02;100838.53;;;10.50;93.86
64967;BME280;51710;38.732;-121.358;2023-03-20T13:20:44;100838.84;;;10.47;94.04
64967;BME280;51710;38.732;-121.358;2023-03-20T13:23:21;100843.63;;;10.43;93.83
64967;BME280;51710;38.732;-121.358;2023-03-20T13:40:29;100828.91;;;10.31;94.21
64967;BME280;51710;38.732;-121.358;2023-03-20T13:45:53;100841.13;;;10.24;94.41
64967;BME280;51710;38.732;-121.358;2023-03-20T13:48:40;100847.31;;;10.25;94.71
64967;BME280;51710;38.732;-121.358;2023-03-20T13:54:07;100858.38;;;10.20;94.74
64967;BME280;51710;38.732;-121.358;2023-03-20T13:59:30;100860.41;;;10.18;94.80
64967;BME280;51710;38.732;-121.358;2023-03-20T14:02:06;100865.72;;;10.18;94.98
64967;BME280;51710;38.732;-121.358;2023-03-20T14:04:36;100866.69;;;10.17;95.20
64967;BME280;51710;38.732;-121.358;2023-03-20T14:07:26;100869.03;;;10.20;94.93
64967;BME280;51710;38.732;-121.358;2023-03-20T14:09:53;100870.25;;;10.26;95.10
64967;BME280;51710;38.732;-121.358;2023-03-20T14:12:25;100867.97;;;10.31;95.24
64967;BME280;51710;38.732;-121.358;2023-03-20T14:14:55;100876.22;;;10.37;95.15
64967;BME280;51710;38.732;-121.358;2023-03-20T14:17:24;100871.41;;;10.41;95.28
64967;BME280;51710;38.732;-121.358;2023-03-20T14:19:52;100871.25;;;10.42;95.29
64967;BME280;51710;38.732;-121.358;2023-03-20T14:22:34;100865.78;;;10.44;95.15
64967;BME280;51710;38.732;-121.358;2023-03-20T14:25:16;100880.75;;;10.45;94.26
64967;BME280;51710;38.732;-121.358;2023-03-20T14:30:49;100882.50;;;10.36;94.21
64967;BME280;51710;38.732;-121.358;2023-03-20T14:35:48;100885.09;;;10.28;94.61
64967;BME280;51710;38.732;-121.358;2023-03-20T14:41:47;100890.31;;;10.20;94.44
64967;BME280;51710;38.732;-121.358;2023-03-20T14:47:04;100908.28;;;10.18;94.19